createdAt,value
2023-11-26T00:01:15.492Z,1.10
2023-11-26T00:03:41.891Z,0.86
2023-11-26T00:06:08.282Z,0.95
2023-11-26T00:08:34.644Z,0.81
2023-11-26T00:11:01.025Z,0.88
2023-11-26T00:13:27.409Z,0.79
2023-11-26T00:15:53.767Z,0.92
2023-11-26T00:18:20.207Z,0.85
2023-11-26T00:20:46.660Z,0.86
2023-11-26T00:23:13.130Z,0.79
2023-11-26T00:25:39.535Z,0.82
2023-11-26T00:28:05.906Z,0.81
2023-11-26T00:30:32.270Z,0.77
2023-11-26T00:32:58.643Z,0.80
2023-11-26T00:35:25.061Z,0.91
2023-11-26T00:37:51.481Z,0.98
2023-11-26T00:40:17.874Z,0.98
2023-11-26T00:42:44.248Z,0.81
2023-11-26T00:45:10.665Z,0.97
2023-11-26T00:47:37.115Z,0.86
2023-11-26T00:50:03.642Z,1.13
2023-11-26T00:52:30.036Z,0.85
2023-11-26T00:54:56.405Z,0.84
2023-11-26T00:57:22.774Z,0.99
2023-11-26T00:59:49.158Z,0.79
2023-11-26T01:02:15.666Z,0.91
2023-11-26T01:04:42.101Z,0.84
2023-11-26T01:07:08.500Z,0.91
2023-11-26T01:09:34.877Z,1.10
2023-11-26T01:12:01.248Z,1.01
2023-11-26T01:14:27.651Z,0.95
2023-11-26T01:16:54.170Z,1.01
2023-11-26T01:19:20.602Z,1.03
2023-11-26T01:21:46.974Z,1.20
2023-11-26T01:24:13.339Z,1.20
2023-11-26T01:26:39.723Z,1.22
2023-11-26T01:29:06.114Z,1.38
2023-11-26T01:31:32.529Z,1.50
2023-11-26T01:33:58.976Z,1.49
2023-11-26T01:36:25.354Z,1.37
2023-11-26T01:38:51.794Z,1.38
2023-11-26T01:41:18.220Z,1.41
2023-11-26T01:43:44.598Z,1.41
2023-11-26T01:46:11.016Z,1.35
2023-11-26T01:48:37.437Z,1.42
2023-11-26T01:51:03.818Z,1.41
2023-11-26T01:53:30.192Z,1.73
2023-11-26T01:55:56.586Z,1.76
2023-11-26T01:58:22.972Z,1.79
2023-11-26T02:00:49.359Z,1.91
2023-11-26T02:03:15.831Z,1.87
2023-11-26T02:05:42.291Z,1.77
2023-11-26T02:08:08.719Z,1.92
2023-11-26T02:10:35.134Z,2.00
2023-11-26T02:13:01.504Z,1.95
2023-11-26T02:15:27.879Z,2.14
2023-11-26T02:17:54.312Z,1.94
2023-11-26T02:20:20.753Z,2.02
2023-11-26T02:22:47.138Z,2.08
2023-11-26T02:25:13.510Z,2.16
2023-11-26T02:27:39.911Z,2.26
2023-11-26T02:30:06.303Z,2.22
2023-11-26T02:32:32.720Z,2.18
2023-11-26T02:34:59.144Z,1.98
2023-11-26T02:37:25.518Z,1.98
2023-11-26T02:39:51.903Z,1.99
2023-11-26T02:42:18.292Z,2.01
2023-11-26T02:44:44.686Z,2.10
2023-11-26T02:47:11.165Z,1.99
2023-11-26T02:49:37.564Z,1.98
2023-11-26T02:52:03.942Z,1.93
2023-11-26T02:54:30.332Z,1.88
2023-11-26T02:56:56.735Z,1.87
2023-11-26T02:59:23.206Z,1.66
2023-11-26T03:01:49.791Z,1.88
2023-11-26T03:04:16.271Z,1.79
2023-11-26T03:06:42.684Z,1.66
2023-11-26T03:09:09.050Z,1.75
2023-11-26T03:11:35.441Z,1.71
2023-11-26T03:14:01.835Z,1.66
2023-11-26T03:16:28.347Z,1.55
2023-11-26T03:18:54.782Z,1.68
2023-11-26T03:21:21.171Z,1.72
2023-11-26T03:23:47.546Z,1.63
2023-11-26T03:26:14.078Z,1.68
2023-11-26T03:28:40.493Z,1.71
2023-11-26T03:31:06.869Z,1.63
2023-11-26T03:33:33.291Z,1.79
2023-11-26T03:35:59.721Z,1.59
2023-11-26T03:38:26.156Z,1.61
2023-11-26T03:40:52.627Z,1.71
2023-11-26T03:43:19.067Z,1.65
2023-11-26T03:45:45.481Z,1.56
2023-11-26T03:48:11.888Z,1.62
2023-11-26T03:50:38.317Z,1.63
2023-11-26T03:53:04.733Z,1.58
2023-11-26T03:55:31.137Z,1.63
2023-11-26T03:57:57.555Z,1.68
2023-11-26T04:00:23.931Z,1.54
2023-11-26T04:02:50.413Z,1.77
2023-11-26T04:05:16.958Z,1.89
2023-11-26T04:07:43.389Z,1.88
2023-11-26T04:10:09.825Z,1.98
2023-11-26T04:12:36.247Z,1.91
2023-11-26T04:15:04.095Z,2.12
2023-11-26T04:17:32.212Z,1.93
2023-11-26T04:19:58.681Z,2.02
2023-11-26T04:22:25.144Z,1.91
2023-11-26T04:24:51.566Z,2.26
2023-11-26T04:27:17.957Z,2.05
2023-11-26T04:29:44.348Z,2.30
2023-11-26T04:32:10.751Z,2.13
2023-11-26T04:34:37.126Z,2.29
2023-11-26T04:37:03.490Z,1.95
2023-11-26T04:39:29.865Z,2.01
2023-11-26T04:41:56.229Z,2.13
2023-11-26T04:44:22.640Z,2.10
2023-11-26T04:46:49.069Z,2.25
2023-11-26T04:49:15.440Z,2.00
2023-11-26T04:51:41.819Z,1.94
2023-11-26T04:54:08.198Z,2.08
2023-11-26T04:56:34.603Z,2.18
2023-11-26T04:59:00.993Z,2.19
2023-11-26T05:01:27.431Z,1.85
2023-11-26T05:03:53.942Z,2.03
2023-11-26T05:06:20.382Z,1.94
2023-11-26T05:08:46.762Z,1.95
2023-11-26T05:11:13.172Z,2.04
2023-11-26T05:13:39.571Z,2.02
2023-11-26T05:16:05.953Z,2.22
2023-11-26T05:18:32.397Z,1.98
2023-11-26T05:20:58.794Z,1.95
2023-11-26T05:23:25.272Z,1.85
2023-11-26T05:25:51.675Z,1.96
2023-11-26T05:28:19.468Z,1.94
2023-11-26T05:30:45.976Z,2.02
2023-11-26T05:33:12.412Z,2.08
2023-11-26T05:35:38.819Z,1.90
2023-11-26T05:38:05.342Z,1.98
2023-11-26T05:40:31.800Z,1.97
2023-11-26T05:42:58.176Z,1.84
2023-11-26T05:45:24.570Z,2.04
2023-11-26T05:47:51.021Z,1.93
2023-11-26T05:50:17.557Z,2.00
2023-11-26T05:52:43.972Z,1.97
2023-11-26T05:55:10.356Z,1.75
2023-11-26T05:57:36.763Z,1.74
2023-11-26T06:00:03.178Z,1.97
2023-11-26T06:02:29.563Z,1.83
2023-11-26T06:04:55.994Z,1.78
2023-11-26T06:07:22.383Z,1.85
2023-11-26T06:09:48.775Z,1.91
2023-11-26T06:12:15.173Z,1.94
2023-11-26T06:14:41.560Z,1.73
2023-11-26T06:17:07.999Z,1.72
2023-11-26T06:19:34.406Z,1.85
2023-11-26T06:22:00.805Z,1.78
2023-11-26T06:24:27.201Z,1.68
2023-11-26T06:26:53.590Z,1.62
2023-11-26T06:29:19.979Z,1.71
2023-11-26T06:31:46.348Z,1.86
2023-11-26T06:34:12.751Z,1.61
2023-11-26T06:36:39.144Z,1.85
2023-11-26T06:39:05.541Z,1.83
2023-11-26T06:41:31.920Z,1.94
2023-11-26T06:43:58.286Z,1.90
2023-11-26T06:46:24.737Z,1.80
2023-11-26T06:48:51.168Z,1.85
2023-11-26T06:51:17.579Z,1.93
2023-11-26T06:53:43.967Z,1.93
2023-11-26T06:56:10.334Z,2.05
2023-11-26T06:58:36.712Z,2.07
2023-11-26T07:01:03.080Z,2.23
2023-11-26T07:03:29.578Z,1.94
2023-11-26T07:05:55.983Z,2.11
2023-11-26T07:08:22.384Z,2.19
2023-11-26T07:10:48.750Z,2.52
2023-11-26T07:13:15.131Z,3.25
2023-11-26T07:15:41.568Z,4.93
2023-11-26T07:18:07.976Z,4.66
2023-11-26T07:20:35.536Z,4.57
2023-11-26T07:23:01.997Z,4.03
2023-11-26T07:25:28.388Z,3.07
2023-11-26T07:27:54.765Z,2.49
2023-11-26T07:30:21.150Z,2.43
2023-11-26T07:32:47.634Z,2.30
2023-11-26T07:35:14.030Z,2.19
2023-11-26T07:37:40.448Z,2.19
2023-11-26T07:40:06.857Z,1.95
2023-11-26T07:42:33.274Z,1.86
2023-11-26T07:44:59.673Z,1.80
2023-11-26T07:47:26.065Z,1.79
2023-11-26T07:49:52.446Z,1.87
2023-11-26T07:52:18.835Z,1.64
2023-11-26T07:54:45.267Z,1.71
2023-11-26T07:57:11.700Z,1.67
2023-11-26T07:59:38.091Z,1.63
2023-11-26T08:02:04.502Z,1.64
2023-11-26T08:04:31.068Z,1.63
2023-11-26T08:06:57.508Z,1.68
2023-11-26T08:09:23.929Z,1.66
2023-11-26T08:11:50.302Z,1.87
2023-11-26T08:14:16.679Z,1.71
2023-11-26T08:16:43.089Z,1.67
2023-11-26T08:19:09.502Z,1.84
2023-11-26T08:21:36.282Z,2.01
2023-11-26T08:24:02.754Z,1.83
2023-11-26T08:26:29.298Z,1.79
2023-11-26T08:28:55.697Z,1.73
2023-11-26T08:31:22.143Z,1.83
2023-11-26T08:33:48.607Z,2.05
2023-11-26T08:36:15.036Z,2.65
2023-11-26T08:38:41.437Z,2.61
2023-11-26T08:41:07.830Z,2.51
2023-11-26T08:43:34.205Z,2.30
2023-11-26T08:46:00.634Z,2.32
2023-11-26T08:48:27.089Z,2.16
2023-11-26T08:50:53.487Z,2.29
2023-11-26T08:53:19.850Z,2.27
2023-11-26T08:55:46.249Z,2.18
2023-11-26T08:58:12.634Z,1.74
2023-11-26T09:00:39.053Z,1.95
2023-11-26T09:03:05.465Z,1.88
2023-11-26T09:05:31.893Z,1.99
2023-11-26T09:07:58.308Z,1.96
2023-11-26T09:10:24.690Z,1.88
2023-11-26T09:12:51.085Z,1.74
2023-11-26T09:15:17.583Z,1.90
2023-11-26T09:17:44.015Z,1.94
2023-11-26T09:20:10.395Z,1.98
2023-11-26T09:22:36.781Z,1.97
2023-11-26T09:25:03.155Z,2.04
2023-11-26T09:27:29.601Z,2.24
2023-11-26T09:29:56.058Z,1.96
2023-11-26T09:32:22.536Z,3.23
2023-11-26T09:34:50.918Z,2.76
2023-11-26T09:37:19.538Z,2.51
2023-11-26T09:39:45.947Z,3.52
2023-11-26T09:42:15.424Z,5.13
2023-11-26T09:44:42.552Z,3.82
2023-11-26T09:47:08.924Z,3.00
2023-11-26T09:49:35.298Z,8.73
2023-11-26T09:52:01.694Z,4.95
2023-11-26T09:54:28.098Z,3.28
2023-11-26T09:56:54.479Z,3.48
2023-11-26T09:59:20.872Z,2.12
2023-11-26T10:01:47.309Z,2.03
2023-11-26T10:04:13.801Z,2.10
2023-11-26T10:06:40.247Z,2.23
2023-11-26T10:09:06.643Z,2.60
2023-11-26T10:11:33.023Z,2.51
2023-11-26T10:13:59.397Z,2.32
2023-11-26T10:16:25.796Z,3.20
2023-11-26T10:18:52.196Z,2.89
2023-11-26T10:21:18.619Z,2.31
2023-11-26T10:23:45.118Z,1.76
2023-11-26T10:26:11.502Z,1.74
2023-11-26T10:28:37.866Z,1.60
2023-11-26T10:31:04.311Z,1.61
2023-11-26T10:33:30.884Z,1.94
2023-11-26T10:35:59.512Z,2.80
2023-11-26T10:38:26.190Z,1.98
2023-11-26T10:40:52.576Z,1.75
2023-11-26T10:43:18.942Z,1.96
2023-11-26T10:45:45.383Z,1.76
2023-11-26T10:48:12.981Z,1.68
2023-11-26T10:50:40.347Z,1.83
2023-11-26T10:53:06.746Z,1.52
2023-11-26T10:55:33.162Z,1.89
2023-11-26T10:57:59.599Z,1.64
2023-11-26T11:00:26.045Z,1.92
2023-11-26T11:02:52.533Z,2.14
2023-11-26T11:05:18.978Z,1.91
2023-11-26T11:07:45.412Z,1.59
2023-11-26T11:10:11.833Z,1.55
2023-11-26T11:12:38.284Z,1.61
2023-11-26T11:15:04.650Z,1.52
2023-11-26T11:17:31.303Z,1.49
2023-11-26T11:19:57.761Z,1.53
2023-11-26T11:22:24.125Z,1.47
2023-11-26T11:24:50.523Z,1.53
2023-11-26T11:27:16.958Z,1.55
2023-11-26T11:29:43.358Z,1.66
2023-11-26T11:32:09.717Z,1.65
2023-11-26T11:34:36.083Z,1.58
2023-11-26T11:37:02.582Z,1.69
2023-11-26T11:39:29.016Z,1.52
2023-11-26T11:41:55.405Z,1.53
2023-11-26T11:44:21.781Z,1.69
2023-11-26T11:46:51.160Z,1.58
2023-11-26T11:49:18.494Z,1.68
2023-11-26T11:51:44.891Z,1.60
2023-11-26T11:54:11.269Z,1.52
2023-11-26T11:56:37.659Z,1.48
2023-11-26T11:59:04.044Z,4.93
2023-11-26T12:01:30.428Z,27.54
2023-11-26T12:03:56.955Z,6.77
2023-11-26T12:06:23.416Z,2.07
2023-11-26T12:08:49.832Z,3.07
2023-11-26T12:11:16.209Z,5.38
2023-11-26T12:13:42.592Z,1.70
2023-11-26T12:16:09.037Z,1.78
2023-11-26T12:18:35.486Z,1.80
2023-11-26T12:21:01.881Z,1.68
2023-11-26T12:23:28.264Z,1.98
2023-11-26T12:25:54.648Z,1.90
2023-11-26T12:28:21.024Z,1.79
2023-11-26T12:30:47.467Z,1.86
2023-11-26T12:33:13.875Z,1.87
2023-11-26T12:35:40.459Z,1.74
2023-11-26T12:38:06.870Z,1.67
2023-11-26T12:40:33.243Z,1.65
2023-11-26T12:42:59.718Z,1.95
2023-11-26T12:45:26.187Z,1.81
2023-11-26T12:47:52.969Z,1.85
2023-11-26T12:50:19.465Z,1.91
2023-11-26T12:52:45.844Z,2.18
2023-11-26T12:55:12.211Z,3.05
2023-11-26T12:57:38.650Z,1.94
2023-11-26T13:00:05.031Z,1.59
2023-11-26T13:02:31.453Z,1.88
2023-11-26T13:04:57.862Z,2.02
2023-11-26T13:07:24.231Z,1.33
2023-11-26T13:09:50.703Z,1.29
2023-11-26T13:12:20.299Z,1.27
2023-11-26T13:14:46.840Z,1.55
2023-11-26T13:17:13.300Z,1.75
2023-11-26T13:19:39.695Z,3.05
2023-11-26T13:22:06.078Z,5.32
2023-11-26T13:24:32.481Z,1.74
2023-11-26T13:26:58.893Z,1.43
2023-11-26T13:29:25.274Z,1.81
2023-11-26T13:31:51.653Z,1.64
2023-11-26T13:34:18.146Z,1.91
2023-11-26T13:36:44.627Z,1.79
2023-11-26T13:39:11.016Z,1.48
2023-11-26T13:41:37.393Z,1.60
2023-11-26T13:44:03.778Z,2.32
2023-11-26T13:46:30.208Z,1.44
2023-11-26T13:48:56.628Z,1.52
2023-11-26T13:51:23.075Z,1.62
2023-11-26T13:53:49.490Z,1.62
2023-11-26T13:56:15.859Z,1.44
2023-11-26T13:58:42.293Z,1.61
2023-11-26T14:01:08.794Z,1.53
2023-11-26T14:03:35.434Z,1.41
2023-11-26T14:06:01.872Z,1.55
2023-11-26T14:08:28.255Z,1.36
2023-11-26T14:10:54.633Z,1.31
2023-11-26T14:13:21.008Z,1.18
2023-11-26T14:15:47.386Z,1.12
2023-11-26T14:18:13.851Z,1.16
2023-11-26T14:20:40.316Z,1.35
2023-11-26T14:23:06.695Z,1.23
2023-11-26T14:25:33.060Z,1.19
2023-11-26T14:27:59.475Z,1.33
2023-11-26T14:30:25.925Z,1.33
2023-11-26T14:32:52.366Z,1.19
2023-11-26T14:35:18.797Z,1.26
2023-11-26T14:37:45.166Z,1.37
2023-11-26T14:40:11.555Z,1.25
2023-11-26T14:42:38.289Z,1.23
2023-11-26T14:45:04.729Z,1.46
2023-11-26T14:47:31.145Z,1.39
2023-11-26T14:49:57.566Z,1.41
2023-11-26T14:52:23.926Z,1.22
2023-11-26T14:54:50.322Z,1.64
2023-11-26T14:57:16.689Z,2.23
2023-11-26T14:59:43.078Z,1.96
2023-11-26T15:02:09.521Z,1.62
2023-11-26T15:04:35.981Z,2.14
2023-11-26T15:07:02.394Z,2.59
2023-11-26T15:09:28.850Z,2.27
2023-11-26T15:11:55.288Z,2.49
2023-11-26T15:14:21.695Z,4.56
2023-11-26T15:16:48.177Z,6.84
2023-11-26T15:19:14.567Z,9.50
2023-11-26T15:21:40.966Z,17.33
2023-11-26T15:24:07.369Z,9.95
2023-11-26T15:26:33.768Z,4.00
2023-11-26T15:29:00.188Z,3.41
2023-11-26T15:31:26.571Z,9.42
2023-11-26T15:33:53.038Z,6.81
2023-11-26T15:36:19.488Z,3.65
2023-11-26T15:38:45.863Z,2.77
2023-11-26T15:41:12.236Z,2.51
2023-11-26T15:43:38.611Z,2.31
2023-11-26T15:46:05.047Z,2.21
2023-11-26T15:48:31.523Z,2.32
2023-11-26T15:50:57.963Z,2.65
2023-11-26T15:53:24.396Z,2.10
2023-11-26T15:55:50.787Z,2.29
2023-11-26T15:58:17.154Z,2.96
2023-11-26T16:00:43.555Z,3.39
2023-11-26T16:03:09.982Z,4.46
2023-11-26T16:05:36.390Z,4.46
2023-11-26T16:08:02.746Z,3.85
2023-11-26T16:10:29.119Z,4.23
2023-11-26T16:12:55.496Z,6.58
2023-11-26T16:15:21.872Z,7.39
2023-11-26T16:17:48.284Z,6.43
2023-11-26T16:20:14.665Z,5.44
2023-11-26T16:22:41.042Z,4.75
2023-11-26T16:25:07.465Z,5.05
2023-11-26T16:27:33.871Z,5.46
2023-11-26T16:30:00.663Z,5.73
2023-11-26T16:32:27.676Z,6.94
2023-11-26T16:34:54.049Z,9.35
2023-11-26T16:37:20.430Z,10.29
2023-11-26T16:39:46.854Z,9.91
2023-11-26T16:42:13.258Z,13.03
2023-11-26T16:44:39.649Z,9.57
2023-11-26T16:47:06.070Z,9.75
2023-11-26T16:49:32.472Z,7.35
2023-11-26T16:51:58.910Z,5.80
2023-11-26T16:54:25.334Z,5.87
2023-11-26T16:56:51.730Z,4.26
2023-11-26T16:59:18.107Z,3.87
2023-11-26T17:01:44.557Z,3.50
2023-11-26T17:04:11.009Z,3.45
2023-11-26T17:06:37.437Z,3.10
2023-11-26T17:09:03.848Z,3.16
2023-11-26T17:11:30.223Z,3.20
2023-11-26T17:13:56.621Z,3.13
2023-11-26T17:16:23.145Z,3.07
2023-11-26T17:18:49.984Z,2.96
2023-11-26T17:21:16.381Z,2.88
2023-11-26T17:23:47.435Z,2.51
2023-11-26T17:26:16.835Z,2.15
2023-11-26T17:28:43.212Z,3.21
2023-11-26T17:31:09.690Z,3.14
2023-11-26T17:33:36.129Z,3.51
2023-11-26T17:36:02.507Z,3.47
2023-11-26T17:38:28.870Z,3.28
2023-11-26T17:40:55.259Z,3.25
2023-11-26T17:43:21.684Z,3.58
2023-11-26T17:45:48.224Z,2.78
2023-11-26T17:48:14.664Z,2.37
2023-11-26T17:50:41.061Z,3.14
2023-11-26T17:53:10.715Z,2.50
2023-11-26T17:55:37.638Z,2.25
2023-11-26T17:58:04.259Z,3.03
2023-11-26T18:00:30.794Z,4.72
2023-11-26T18:02:57.176Z,6.77
2023-11-26T18:05:23.572Z,6.17
2023-11-26T18:07:49.948Z,3.37
2023-11-26T18:10:16.336Z,2.62
2023-11-26T18:12:42.752Z,2.61
2023-11-26T18:15:09.152Z,3.18
2023-11-26T18:17:35.537Z,3.63
2023-11-26T18:20:01.964Z,2.99
2023-11-26T18:22:28.360Z,2.18
2023-11-26T18:24:54.758Z,2.06
2023-11-26T18:27:21.161Z,2.00
2023-11-26T18:29:47.569Z,2.08
2023-11-26T18:32:13.945Z,2.23
2023-11-26T18:34:40.323Z,2.94
2023-11-26T18:37:06.750Z,2.37
2023-11-26T18:39:33.150Z,2.05
2023-11-26T18:41:59.544Z,2.15
2023-11-26T18:44:25.928Z,2.05
2023-11-26T18:46:52.334Z,2.44
2023-11-26T18:49:18.719Z,2.80
2023-11-26T18:51:45.128Z,2.95
2023-11-26T18:54:11.545Z,2.84
2023-11-26T18:56:37.924Z,2.86
2023-11-26T18:59:04.322Z,2.80
2023-11-26T19:01:30.737Z,2.89
2023-11-26T19:03:57.176Z,2.69
2023-11-26T19:06:23.573Z,2.46
2023-11-26T19:08:49.971Z,2.16
2023-11-26T19:11:16.374Z,1.94
2023-11-26T19:13:42.917Z,2.07
2023-11-26T19:16:09.373Z,2.19
2023-11-26T19:18:35.987Z,2.22
2023-11-26T19:21:02.387Z,2.39
2023-11-26T19:23:29.809Z,2.09
2023-11-26T19:25:56.224Z,1.83
2023-11-26T19:28:22.619Z,2.16
2023-11-26T19:30:49.024Z,2.07
2023-11-26T19:33:15.487Z,2.00
2023-11-26T19:35:41.906Z,1.95
2023-11-26T19:38:08.281Z,2.08
2023-11-26T19:40:37.351Z,2.20
2023-11-26T19:43:05.281Z,1.91
2023-11-26T19:45:31.696Z,1.99
2023-11-26T19:47:58.150Z,2.16
2023-11-26T19:50:24.550Z,2.35
2023-11-26T19:52:50.931Z,2.18
2023-11-26T19:55:17.355Z,2.24
2023-11-26T19:57:43.816Z,2.45
2023-11-26T20:00:10.205Z,2.52
2023-11-26T20:02:36.684Z,2.18
2023-11-26T20:05:03.190Z,2.21
2023-11-26T20:07:29.608Z,1.99
2023-11-26T20:09:56.048Z,2.02
2023-11-26T20:12:24.181Z,1.95
2023-11-26T20:14:52.452Z,1.92
2023-11-26T20:17:18.911Z,1.98
2023-11-26T20:19:45.384Z,1.99
2023-11-26T20:22:11.857Z,1.87
2023-11-26T20:24:38.355Z,1.89
2023-11-26T20:27:04.797Z,1.79
2023-11-26T20:29:31.176Z,1.84
2023-11-26T20:31:57.557Z,1.76
2023-11-26T20:34:23.939Z,1.96
2023-11-26T20:36:50.362Z,2.05
2023-11-26T20:39:16.761Z,2.01
2023-11-26T20:41:43.124Z,2.05
2023-11-26T20:44:09.494Z,1.72
2023-11-26T20:46:35.917Z,1.81
2023-11-26T20:49:02.339Z,1.61
2023-11-26T20:51:28.768Z,1.80
2023-11-26T20:53:55.171Z,1.82
2023-11-26T20:56:21.554Z,2.11
2023-11-26T20:58:47.935Z,4.19
2023-11-26T21:01:14.372Z,5.80
2023-11-26T21:03:40.823Z,5.03
2023-11-26T21:06:07.247Z,4.33
2023-11-26T21:08:33.643Z,5.57
2023-11-26T21:11:00.016Z,6.36
2023-11-26T21:13:26.398Z,5.22
2023-11-26T21:15:52.797Z,4.08
2023-11-26T21:18:19.182Z,2.71
2023-11-26T21:20:45.563Z,2.08
2023-11-26T21:23:11.947Z,2.02
2023-11-26T21:25:38.336Z,2.00
2023-11-26T21:28:04.735Z,2.19
2023-11-26T21:30:31.138Z,2.08
2023-11-26T21:32:57.520Z,1.96
2023-11-26T21:35:23.997Z,2.08
2023-11-26T21:37:50.526Z,1.93
2023-11-26T21:40:16.991Z,2.22
2023-11-26T21:42:43.515Z,2.14
2023-11-26T21:45:09.953Z,2.31
2023-11-26T21:47:36.439Z,2.16
2023-11-26T21:50:02.847Z,2.03
2023-11-26T21:52:29.260Z,2.36
2023-11-26T21:54:55.716Z,2.38
2023-11-26T21:57:22.114Z,2.52
2023-11-26T21:59:48.502Z,2.44
2023-11-26T22:02:15.104Z,2.65
2023-11-26T22:04:41.634Z,2.67
2023-11-26T22:07:08.035Z,2.90
2023-11-26T22:09:34.472Z,2.63
2023-11-26T22:12:00.849Z,2.69
2023-11-26T22:14:27.236Z,2.65
2023-11-26T22:16:53.619Z,2.49
2023-11-26T22:19:20.068Z,2.57
2023-11-26T22:21:46.511Z,2.50
2023-11-26T22:24:12.894Z,2.53
2023-11-26T22:26:39.324Z,2.53
2023-11-26T22:29:05.742Z,2.86
2023-11-26T22:31:32.239Z,2.69
2023-11-26T22:33:58.758Z,2.85
2023-11-26T22:36:25.166Z,3.09
2023-11-26T22:38:51.521Z,2.82
2023-11-26T22:41:17.900Z,2.67
2023-11-26T22:43:44.278Z,3.01
2023-11-26T22:46:10.717Z,2.92
2023-11-26T22:48:37.163Z,2.70
2023-11-26T22:51:03.544Z,2.96
2023-11-26T22:53:29.919Z,2.90
2023-11-26T22:55:56.294Z,2.70
2023-11-26T22:58:22.669Z,2.61
2023-11-26T23:00:49.128Z,2.51
2023-11-26T23:03:15.595Z,2.66
2023-11-26T23:05:42.060Z,2.60
2023-11-26T23:08:08.456Z,2.57
2023-11-26T23:10:34.901Z,2.70
2023-11-26T23:13:01.309Z,2.86
2023-11-26T23:15:27.700Z,2.71
2023-11-26T23:17:54.185Z,2.91
2023-11-26T23:20:20.610Z,2.58
2023-11-26T23:22:46.996Z,2.57
2023-11-26T23:25:13.416Z,2.69
2023-11-26T23:27:39.907Z,2.79
2023-11-26T23:30:06.330Z,2.69
2023-11-26T23:32:32.741Z,2.73
2023-11-26T23:34:59.113Z,2.80
2023-11-26T23:37:25.492Z,2.77
2023-11-26T23:39:51.908Z,2.52
2023-11-26T23:42:18.320Z,2.70
2023-11-26T23:44:44.685Z,2.77
2023-11-26T23:47:11.056Z,2.44
2023-11-26T23:49:37.422Z,2.75
2023-11-26T23:52:03.810Z,2.64
2023-11-26T23:54:30.210Z,2.60
2023-11-26T23:56:56.589Z,2.51
2023-11-26T23:59:22.970Z,2.57
